Potsdam, NY (13676)

2:29 AM EST on November 23, 2014 (GMT -0500)
ERC, Clarkson Campus | Change Station
CLOSE
Current Station
Personal Weather Station
Location: Potsdam, NY
Elevation: 479 ft
Nearby Weather Stations

Elev 479 ft 44.66 °N, 75.00 °W | Updated 7 minutes ago

Rain
Rain
40.8 °F
Feels Like 41 °F
N
2.0
Wind Variable Wind from South
Gusts 9.0 mph

Today
High -- | Low -- °F
--% Chance of Precip.
Yesterday
High -- | Low -- °F
Precip. -- in
7:06 AM 4:25 PM
New Moon, 1% visible
Pressure 29.95 in
Visibility 5.0 miles
Clouds Overcast 600 ft
Windchill 41 °F
Dew Point 39 °F
Humidity 92%
Rainfall 0.15 in
Snow Depth Not available.
UV 0.0 out of 12
Pollen .10 out of 12
Air Quality Not available.
Flu Activity Not available.
METAR KMSS 230653Z AUTO 23011KT 5SM -RA BR OVC006 05/04 A2994 RMK AO2 SLP142 P0007 T00500044

More Conditions Fewer Conditions

Pressure 29.95 in
Visibility 5.0 miles
Clouds Overcast 600 ft
Windchill 41 °F
Dew Point 39 °F
Humidity 92%
Rainfall 0.15 in
Snow Depth Not available.
UV 0.0 out of 12
Pollen .10 out of 12
Air Quality Not available.
Flu Activity Not available.
METAR KMSS 230653Z AUTO 23011KT 5SM -RA BR OVC006 05/04 A2994 RMK AO2 SLP142 P0007 T00500044

More Conditions Fewer Conditions

10-Day Weather Forecast

Almanac

Astronomy

Nov. 23, 2014 Rise Set
Actual Time
Civil Twilight
Nautical Twilight
Astronomical Twilight
Moon
Length of Visible Light
Length of Day
Tomorrow will be .
, % of the Moon is Illuminated

Today's Extremes

State Highs State Lows

Community

WunderPhotos

Upload Photos

1,773,024 photos uploaded!

WunderBlogs® & News

Nearby

Air Quality

  Air Quality AQ Index Pollutant
Not available.

Snow Depth

Station Depth Elevation

Earthquake Activity

City Distance Mag. Time & Date
Minimum magnitude displayed is 2.5.

Coastal Water Temperatures

Place Temperature

Nearby Weather Stations